Decoded Metar for LDDU (DUBROVNIK in CROATIA) (IATA:DBV) | Meteo·Mobile Aviation Weather
aviador You're here:

LDDU Decoded Metar

DUBROVNIK in CROATIA
Report Time2019-03-23 08:00:00
UTC Time2019-03-23 08:23:02
Flight Rules vfr VFR
Wind130° at 04 kt
W.Decomp.*RWY 12: 4.0 kt HW 0.5 kt RCW
W.Rank130° ranks 10
Current wind is below 130° avg. (11.5)
Visibility9999 m
Phenomena:N/A
Clouds:N/A
Expected CloudBase > 8,000 ft AGL from Temp-Dew spread
CeilingNone
Temp18°C (ISA +4)
Dew Point-2°C (26% RH)
AAT14.3°C
QNH1022 hPa
Density Alt794 ft
Elevation541 ft
Report Wrong Elevation
Raw Report
LDDU 230800Z 13004KT 100V170 CAVOK 18/M02 Q1022 NOSIG=

Extra information for LDDU:More info

Metar Taf Metar & Taf Last 4 Metars F.Rules Stats Wind Profile Meteogram Temp Stats Airport Information Weather charts Add Link Nearby VenuesMetar ALERT Operation Metar Decoded Social comments